createdAt,value
2019-06-25T00:00:54.989Z,0.00
2019-06-25T00:01:54.917Z,0.00
2019-06-25T00:02:54.846Z,0.00
2019-06-25T00:03:54.778Z,0.00
2019-06-25T00:04:54.705Z,0.00
2019-06-25T00:05:54.635Z,0.00
2019-06-25T00:06:54.661Z,0.00
2019-06-25T00:07:54.490Z,0.00
2019-06-25T00:08:54.419Z,0.00
2019-06-25T00:09:54.346Z,0.00
2019-06-25T00:10:54.276Z,0.00
2019-06-25T00:11:54.218Z,0.00
2019-06-25T00:12:54.134Z,0.00
2019-06-25T00:13:54.104Z,0.00
2019-06-25T00:14:53.990Z,0.00
2019-06-25T00:15:53.918Z,0.00
2019-06-25T00:16:53.846Z,0.00
2019-06-25T00:17:53.775Z,0.00
2019-06-25T00:18:53.702Z,0.00
2019-06-25T00:19:53.632Z,0.00
2019-06-25T00:20:53.561Z,0.00
2019-06-25T00:21:53.489Z,0.00
2019-06-25T00:22:53.423Z,0.00
2019-06-25T00:23:53.348Z,0.00
2019-06-25T00:24:53.279Z,0.00
2019-06-25T00:25:53.203Z,0.00
2019-06-25T00:26:53.135Z,0.00
2019-06-25T00:27:53.061Z,0.00
2019-06-25T00:28:52.989Z,0.00
2019-06-25T00:29:56.448Z,0.00
2019-06-25T00:30:52.845Z,0.00
2019-06-25T00:31:52.775Z,0.00
2019-06-25T00:32:52.804Z,0.00
2019-06-25T00:33:52.658Z,0.00
2019-06-25T00:34:52.559Z,0.00
2019-06-25T00:35:52.489Z,0.00
2019-06-25T00:36:52.417Z,0.00
2019-06-25T00:37:52.445Z,0.00
2019-06-25T00:38:52.274Z,0.00
2019-06-25T00:39:52.213Z,0.00
2019-06-25T00:40:52.139Z,0.00
2019-06-25T00:41:52.064Z,0.00
2019-06-25T00:42:51.988Z,0.00
2019-06-25T00:43:51.916Z,0.00
2019-06-25T00:44:51.845Z,0.00
2019-06-25T00:45:51.773Z,0.00
2019-06-25T00:46:51.703Z,0.00
2019-06-25T00:47:51.634Z,0.00
2019-06-25T00:48:51.558Z,0.00
2019-06-25T00:49:51.485Z,0.00
2019-06-25T00:50:51.420Z,0.00
2019-06-25T00:51:51.343Z,0.00
2019-06-25T00:52:51.271Z,0.00
2019-06-25T00:53:51.230Z,0.00
2019-06-25T00:54:51.152Z,0.00
2019-06-25T00:55:51.057Z,0.00
2019-06-25T00:56:50.985Z,0.00
2019-06-25T00:57:50.911Z,0.00
2019-06-25T00:58:50.840Z,0.00
2019-06-25T00:59:50.770Z,0.00
2019-06-25T01:00:50.723Z,0.00
2019-06-25T01:01:50.667Z,0.00
2019-06-25T01:02:50.653Z,0.00
2019-06-25T01:03:50.482Z,0.00
2019-06-25T01:04:50.411Z,0.00
2019-06-25T01:05:50.338Z,0.00
2019-06-25T01:06:50.266Z,0.00
2019-06-25T01:07:50.298Z,0.00
2019-06-25T01:08:50.123Z,0.00
2019-06-25T01:09:50.054Z,0.00
2019-06-25T01:10:49.979Z,0.00
2019-06-25T01:11:49.906Z,0.00
2019-06-25T01:12:49.935Z,0.00
2019-06-25T01:13:49.776Z,0.00
2019-06-25T01:14:49.691Z,0.00
2019-06-25T01:15:49.619Z,0.00
2019-06-25T01:16:49.567Z,0.00
2019-06-25T01:17:49.505Z,0.00
2019-06-25T01:18:49.432Z,0.00
2019-06-25T01:19:49.332Z,0.00
2019-06-25T01:20:49.261Z,0.00
2019-06-25T01:21:49.189Z,0.00
2019-06-25T01:22:49.124Z,0.00
2019-06-25T01:23:49.144Z,0.00
2019-06-25T01:24:48.972Z,0.00
2019-06-25T01:25:48.900Z,0.00
2019-06-25T01:26:51.243Z,0.00
2019-06-25T01:27:48.758Z,0.00
2019-06-25T01:28:48.686Z,0.00
2019-06-25T01:29:48.613Z,0.00
2019-06-25T01:30:48.540Z,0.00
2019-06-25T01:31:48.471Z,0.00
2019-06-25T01:32:48.497Z,0.00
2019-06-25T01:33:48.388Z,0.00
2019-06-25T01:34:48.254Z,0.00
2019-06-25T01:35:48.187Z,0.00
2019-06-25T01:36:48.110Z,0.00
2019-06-25T01:37:48.037Z,0.00
2019-06-25T01:38:47.965Z,0.00
2019-06-25T01:39:47.894Z,0.00
2019-06-25T01:40:47.822Z,0.00
2019-06-25T01:41:47.749Z,0.00
2019-06-25T01:42:47.686Z,0.00
2019-06-25T01:43:47.706Z,0.00
2019-06-25T01:44:47.539Z,0.00
2019-06-25T01:45:47.462Z,0.00
2019-06-25T01:46:47.390Z,0.00
2019-06-25T01:47:47.318Z,0.00
2019-06-25T01:48:47.253Z,0.00
2019-06-25T01:49:47.173Z,0.00
2019-06-25T01:50:47.103Z,0.00
2019-06-25T01:51:47.029Z,0.00
2019-06-25T01:52:46.972Z,0.00
2019-06-25T01:53:46.884Z,0.00
2019-06-25T01:54:46.815Z,0.00
2019-06-25T01:55:46.765Z,0.00
2019-06-25T01:56:46.871Z,0.00
2019-06-25T01:57:46.799Z,0.00
2019-06-25T01:58:46.525Z,0.00
2019-06-25T01:59:46.453Z,0.00
2019-06-25T02:00:46.384Z,0.00
2019-06-25T02:01:46.329Z,0.00
2019-06-25T02:02:46.237Z,0.00
2019-06-25T02:03:46.456Z,0.00
2019-06-25T02:04:48.214Z,0.00
2019-06-25T02:05:46.020Z,0.00
2019-06-25T02:06:45.948Z,0.00
2019-06-25T02:07:46.081Z,0.00
2019-06-25T02:08:45.806Z,0.00
2019-06-25T02:09:45.733Z,0.00
2019-06-25T02:10:45.993Z,0.00
2019-06-25T02:11:45.591Z,0.00
2019-06-25T02:12:45.516Z,0.00
2019-06-25T02:13:45.445Z,0.00
2019-06-25T02:14:45.906Z,0.00
2019-06-25T02:15:45.836Z,0.00
2019-06-25T02:16:45.450Z,0.00
2019-06-25T02:17:45.158Z,0.00
2019-06-25T02:18:45.419Z,0.00
2019-06-25T02:19:45.037Z,0.00
2019-06-25T02:20:44.965Z,0.00
2019-06-25T02:21:44.869Z,0.00
2019-06-25T02:22:44.796Z,0.00
2019-06-25T02:23:44.824Z,0.00
2019-06-25T02:24:44.654Z,0.00
2019-06-25T02:25:44.617Z,0.00
2019-06-25T02:26:44.539Z,0.00
2019-06-25T02:27:44.457Z,0.00
2019-06-25T02:28:44.365Z,0.00
2019-06-25T02:29:44.446Z,0.00
2019-06-25T02:31:05.026Z,0.00
2019-06-25T02:31:44.155Z,0.00
2019-06-25T02:32:44.087Z,0.00
2019-06-25T02:33:44.008Z,0.00
2019-06-25T02:34:43.933Z,0.00
2019-06-25T02:35:43.862Z,0.00
2019-06-25T02:36:43.792Z,0.00
2019-06-25T02:37:43.720Z,0.00
2019-06-25T02:38:43.648Z,0.00
2019-06-25T02:39:43.676Z,0.00
2019-06-25T02:40:43.504Z,0.00
2019-06-25T02:41:43.439Z,0.00
2019-06-25T02:42:43.361Z,0.00
2019-06-25T02:43:43.341Z,0.00
2019-06-25T02:44:43.218Z,0.00
2019-06-25T02:45:43.145Z,0.00
2019-06-25T02:46:43.072Z,0.00
2019-06-25T02:47:43.002Z,0.00
2019-06-25T02:48:42.937Z,0.00
2019-06-25T02:49:42.856Z,0.00
2019-06-25T02:50:42.785Z,0.00
2019-06-25T02:51:42.714Z,0.00
2019-06-25T02:52:42.645Z,0.00
2019-06-25T02:53:42.573Z,0.00
2019-06-25T02:55:42.831Z,0.00
2019-06-25T02:56:42.366Z,0.00
2019-06-25T02:57:42.283Z,0.00
2019-06-25T02:58:42.208Z,0.00
2019-06-25T02:59:42.142Z,0.00
2019-06-25T03:00:42.400Z,0.00
2019-06-25T03:01:41.993Z,0.00
2019-06-25T03:02:41.942Z,0.00
2019-06-25T03:03:41.848Z,0.00
2019-06-25T03:04:41.777Z,0.00
2019-06-25T03:05:41.704Z,0.00
2019-06-25T03:06:41.661Z,0.00
2019-06-25T03:07:41.563Z,0.00
2019-06-25T03:08:41.492Z,0.00
2019-06-25T03:09:41.420Z,0.00
2019-06-25T03:10:41.455Z,0.00
2019-06-25T03:11:41.276Z,0.00
2019-06-25T03:12:41.209Z,0.00
2019-06-25T03:13:41.141Z,0.00
2019-06-25T03:14:41.062Z,0.00
2019-06-25T03:15:40.989Z,0.00
2019-06-25T03:16:40.954Z,0.00
2019-06-25T03:17:40.857Z,0.00
2019-06-25T03:18:40.775Z,0.00
2019-06-25T03:19:40.703Z,0.00
2019-06-25T03:20:40.633Z,0.00
2019-06-25T03:21:40.561Z,0.00
2019-06-25T03:22:40.488Z,0.00
2019-06-25T03:23:40.418Z,0.00
2019-06-25T03:24:40.345Z,0.00
2019-06-25T03:25:40.274Z,0.00
2019-06-25T03:26:40.206Z,0.00
2019-06-25T03:27:40.130Z,0.00
2019-06-25T03:28:40.392Z,0.00
2019-06-25T03:29:40.331Z,0.00
2019-06-25T03:30:39.917Z,0.00
2019-06-25T03:32:03.057Z,0.00
2019-06-25T03:32:39.774Z,0.00
2019-06-25T03:33:39.701Z,0.00
2019-06-25T03:34:39.640Z,0.00
2019-06-25T03:35:39.562Z,0.00
2019-06-25T03:36:39.486Z,0.00
2019-06-25T03:37:39.443Z,0.00
2019-06-25T03:38:39.343Z,0.00
2019-06-25T03:39:39.276Z,0.00
2019-06-25T03:40:39.202Z,0.00
2019-06-25T03:41:39.128Z,0.00
2019-06-25T03:42:39.056Z,0.00
2019-06-25T03:43:38.985Z,0.00
2019-06-25T03:44:38.913Z,0.00
2019-06-25T03:45:38.843Z,0.00
2019-06-25T03:46:38.770Z,0.00
2019-06-25T03:47:38.698Z,0.00
2019-06-25T03:48:38.627Z,0.00
2019-06-25T03:49:38.555Z,0.00
2019-06-25T03:50:38.496Z,0.00
2019-06-25T03:51:38.413Z,0.00
2019-06-25T03:52:38.574Z,0.00
2019-06-25T03:53:38.267Z,0.00
2019-06-25T03:54:38.199Z,0.00
2019-06-25T03:55:38.130Z,0.00
2019-06-25T03:56:38.081Z,0.00
2019-06-25T03:57:37.985Z,0.00
2019-06-25T03:58:37.910Z,0.00
2019-06-25T03:59:37.838Z,0.00
2019-06-25T04:00:37.769Z,0.00
2019-06-25T04:01:37.695Z,0.00
2019-06-25T04:03:37.579Z,0.00
2019-06-25T04:04:37.493Z,0.00
2019-06-25T04:05:37.407Z,0.00
2019-06-25T04:06:37.342Z,0.00
2019-06-25T04:07:37.291Z,0.00
2019-06-25T04:08:37.295Z,0.00
2019-06-25T04:09:37.122Z,0.00
2019-06-25T04:10:37.052Z,0.00
2019-06-25T04:11:36.992Z,0.00
2019-06-25T04:12:36.909Z,0.00
2019-06-25T04:13:36.837Z,0.00
2019-06-25T04:14:36.769Z,0.00
2019-06-25T04:15:36.693Z,0.00
2019-06-25T04:16:36.624Z,0.00
2019-06-25T04:17:36.551Z,0.00
2019-06-25T04:18:36.478Z,0.00
2019-06-25T04:19:36.433Z,0.00
2019-06-25T04:20:36.337Z,0.00
2019-06-25T04:21:36.263Z,0.00
2019-06-25T04:22:36.192Z,0.00
2019-06-25T04:23:36.121Z,0.00
2019-06-25T04:24:36.054Z,0.00
2019-06-25T04:25:35.977Z,0.00
2019-06-25T04:26:35.907Z,0.00
2019-06-25T04:27:36.037Z,0.00
2019-06-25T04:28:35.762Z,0.00
2019-06-25T04:29:35.897Z,0.00
2019-06-25T04:30:35.622Z,0.00
2019-06-25T04:31:35.548Z,0.00
2019-06-25T04:32:35.477Z,0.00
2019-06-25T04:33:35.440Z,0.00
2019-06-25T04:34:35.335Z,0.00
2019-06-25T04:35:35.262Z,0.00
2019-06-25T04:37:35.124Z,0.00
2019-06-25T04:38:35.049Z,0.00
2019-06-25T04:39:34.977Z,0.00
2019-06-25T04:40:34.913Z,0.00
2019-06-25T04:41:34.833Z,0.00
2019-06-25T04:42:34.764Z,0.00
2019-06-25T04:43:34.733Z,0.00
2019-06-25T04:44:34.620Z,0.00
2019-06-25T04:45:34.576Z,0.00
2019-06-25T04:46:34.479Z,0.00
2019-06-25T04:47:34.406Z,0.00
2019-06-25T04:48:34.345Z,0.00
2019-06-25T04:49:34.263Z,0.00
2019-06-25T04:50:34.193Z,0.00
2019-06-25T04:51:34.121Z,0.00
2019-06-25T04:52:34.049Z,0.00
2019-06-25T04:53:33.979Z,0.00
2019-06-25T04:54:33.906Z,0.00
2019-06-25T04:55:33.838Z,0.00
2019-06-25T04:56:33.765Z,0.00
2019-06-25T04:57:33.692Z,0.00
2019-06-25T04:58:33.625Z,0.00
2019-06-25T04:59:33.551Z,0.00
2019-06-25T05:00:33.482Z,0.00
2019-06-25T05:01:33.409Z,0.00
2019-06-25T05:02:48.562Z,0.00
2019-06-25T05:03:33.278Z,0.00
2019-06-25T05:06:58.851Z,0.00
2019-06-25T05:07:58.786Z,0.00
2019-06-25T05:08:58.717Z,0.00
2019-06-25T05:09:58.637Z,0.00
2019-06-25T05:10:58.597Z,0.00
2019-06-25T05:11:58.496Z,0.00
2019-06-25T05:12:58.424Z,0.00
2019-06-25T05:13:58.396Z,0.00
2019-06-25T05:14:58.285Z,0.00
2019-06-25T05:15:58.215Z,0.00
2019-06-25T05:16:58.141Z,0.00
2019-06-25T05:17:58.073Z,0.00
2019-06-25T05:18:57.999Z,0.00
2019-06-25T05:19:57.975Z,0.00
2019-06-25T05:20:57.859Z,0.00
2019-06-25T05:21:57.787Z,0.00
2019-06-25T05:22:57.718Z,0.00
2019-06-25T05:23:57.646Z,0.00
2019-06-25T05:24:57.577Z,0.00
2019-06-25T05:25:57.512Z,0.00
2019-06-25T05:26:57.436Z,0.00
2019-06-25T05:27:57.370Z,0.00
2019-06-25T05:28:57.297Z,0.00
2019-06-25T05:29:57.223Z,0.00
2019-06-25T05:30:57.167Z,0.00
2019-06-25T05:31:57.083Z,0.00
2019-06-25T05:33:05.260Z,0.00
2019-06-25T05:33:56.944Z,0.00
2019-06-25T05:34:56.952Z,0.00
2019-06-25T05:35:56.801Z,0.00
2019-06-25T05:36:56.733Z,0.00
2019-06-25T05:37:56.672Z,0.00
2019-06-25T05:38:56.590Z,0.00
2019-06-25T05:39:56.522Z,0.00
2019-06-25T05:40:56.450Z,0.00
2019-06-25T05:41:56.392Z,0.00
2019-06-25T05:42:56.310Z,0.00
2019-06-25T05:43:56.242Z,0.00
2019-06-25T05:44:56.170Z,0.00
2019-06-25T05:45:56.099Z,0.00
2019-06-25T05:46:56.036Z,0.00
2019-06-25T05:47:55.963Z,0.00
2019-06-25T05:48:55.894Z,0.00
2019-06-25T05:49:55.825Z,0.00
2019-06-25T05:50:55.754Z,0.00
2019-06-25T05:51:55.681Z,0.00
2019-06-25T05:52:55.610Z,0.00
2019-06-25T05:53:55.540Z,0.00
2019-06-25T05:54:55.470Z,0.00
2019-06-25T05:55:55.401Z,0.00
2019-06-25T05:56:55.337Z,0.00
2019-06-25T05:57:55.260Z,0.00
2019-06-25T05:58:55.194Z,0.00
2019-06-25T05:59:55.122Z,0.00
2019-06-25T06:00:55.093Z,0.00
2019-06-25T06:01:54.981Z,0.00
2019-06-25T06:02:54.913Z,0.00
2019-06-25T06:03:54.841Z,0.00
2019-06-25T06:04:54.775Z,0.00
2019-06-25T06:05:54.702Z,0.00
2019-06-25T06:06:54.633Z,0.00
2019-06-25T06:07:54.564Z,0.00
2019-06-25T06:08:54.499Z,0.00
2019-06-25T06:09:54.430Z,0.00
2019-06-25T06:10:54.354Z,0.00
2019-06-25T06:11:54.285Z,0.00
2019-06-25T06:12:54.214Z,0.00
2019-06-25T06:13:54.149Z,0.00
2019-06-25T06:14:54.077Z,0.00
2019-06-25T06:15:54.008Z,0.00
2019-06-25T06:16:53.937Z,0.00
2019-06-25T06:17:53.867Z,0.00
2019-06-25T06:18:53.806Z,0.00
2019-06-25T06:19:53.728Z,0.00
2019-06-25T06:20:53.660Z,0.00
2019-06-25T06:21:53.595Z,0.00
2019-06-25T06:22:53.522Z,0.00
2019-06-25T06:23:53.452Z,0.00
2019-06-25T06:24:53.382Z,0.00
2019-06-25T06:25:53.315Z,0.00
2019-06-25T06:26:53.243Z,0.00
2019-06-25T06:27:53.174Z,0.00
2019-06-25T06:28:53.105Z,0.00
2019-06-25T06:29:53.037Z,0.00
2019-06-25T06:30:52.970Z,0.00
2019-06-25T06:31:52.906Z,0.00
2019-06-25T06:32:52.831Z,0.00
2019-06-25T06:33:52.761Z,0.00
2019-06-25T06:34:52.689Z,0.00
2019-06-25T06:35:52.684Z,0.00
2019-06-25T06:36:52.554Z,0.00
2019-06-25T06:37:52.482Z,0.00
2019-06-25T06:38:52.411Z,0.00
2019-06-25T06:39:52.340Z,0.00
2019-06-25T06:40:52.272Z,0.00
2019-06-25T06:41:52.201Z,0.00
2019-06-25T06:42:52.133Z,0.00
2019-06-25T06:43:52.063Z,0.00
2019-06-25T06:44:52.037Z,0.00
2019-06-25T06:45:51.926Z,0.00
2019-06-25T06:46:51.858Z,0.00
2019-06-25T06:47:51.809Z,0.00
2019-06-25T06:48:51.718Z,0.00
2019-06-25T06:49:51.654Z,0.00
2019-06-25T06:50:51.580Z,0.00
2019-06-25T06:51:51.514Z,0.00
2019-06-25T06:52:51.444Z,0.00
2019-06-25T06:53:51.377Z,0.00
2019-06-25T06:54:51.349Z,0.00
2019-06-25T06:55:51.236Z,0.00
2019-06-25T06:56:51.169Z,0.00
2019-06-25T06:57:51.100Z,0.00
2019-06-25T06:58:51.524Z,0.00
2019-06-25T06:59:50.961Z,0.00
2019-06-25T07:00:50.893Z,0.00
2019-06-25T07:01:50.856Z,0.00
2019-06-25T07:02:50.756Z,0.00
2019-06-25T07:03:53.240Z,0.00
2019-06-25T07:04:50.782Z,0.00
2019-06-25T07:05:50.646Z,0.00
2019-06-25T07:06:50.482Z,0.00
2019-06-25T07:07:50.413Z,0.00
2019-06-25T07:08:50.350Z,0.00
2019-06-25T07:09:50.325Z,0.00
2019-06-25T07:10:50.207Z,0.00
2019-06-25T07:11:50.158Z,0.00
2019-06-25T07:12:50.070Z,0.00
2019-06-25T07:13:50.001Z,0.00
2019-06-25T07:14:49.938Z,0.00
2019-06-25T07:15:49.864Z,0.00
2019-06-25T07:16:49.809Z,0.00
2019-06-25T07:17:49.728Z,0.00
2019-06-25T07:18:49.660Z,0.00
2019-06-25T07:19:49.596Z,0.00
2019-06-25T07:20:49.523Z,0.00
2019-06-25T07:21:49.454Z,0.00
2019-06-25T07:22:49.386Z,0.00
2019-06-25T07:23:49.325Z,0.00
2019-06-25T07:24:49.263Z,0.00
2019-06-25T07:25:49.201Z,0.00
2019-06-25T07:26:49.142Z,0.00
2019-06-25T07:27:49.044Z,0.00
2019-06-25T07:28:48.977Z,0.00
2019-06-25T07:29:48.907Z,0.00
2019-06-25T07:30:48.841Z,0.00
2019-06-25T07:31:48.834Z,0.00
2019-06-25T07:32:48.708Z,0.00
2019-06-25T07:33:48.653Z,0.00
2019-06-25T07:34:48.802Z,0.00
2019-06-25T07:35:48.502Z,0.00
2019-06-25T07:36:48.432Z,0.00
2019-06-25T07:37:48.366Z,0.00
2019-06-25T07:38:48.294Z,0.00
2019-06-25T07:39:48.241Z,0.00
2019-06-25T07:40:48.160Z,0.00
2019-06-25T07:41:48.089Z,0.00
2019-06-25T07:42:48.021Z,0.00
2019-06-25T07:43:47.954Z,0.00
2019-06-25T07:44:47.885Z,0.00
2019-06-25T07:45:47.839Z,0.00
2019-06-25T07:46:47.748Z,0.00
2019-06-25T07:47:47.680Z,0.00
2019-06-25T07:48:47.613Z,0.00
2019-06-25T07:49:47.564Z,0.00
2019-06-25T07:50:47.476Z,0.00
2019-06-25T07:51:47.413Z,0.00
2019-06-25T07:52:47.343Z,0.00
2019-06-25T07:53:47.274Z,0.00
2019-06-25T07:54:47.206Z,0.00
2019-06-25T07:55:47.138Z,0.00
2019-06-25T07:56:47.071Z,0.00
2019-06-25T07:57:47.009Z,0.00
2019-06-25T07:58:46.934Z,0.00
2019-06-25T07:59:46.902Z,0.00
2019-06-25T08:00:46.828Z,0.00
2019-06-25T08:01:46.731Z,0.00
2019-06-25T08:02:46.665Z,0.00
2019-06-25T08:03:46.596Z,0.00
2019-06-25T08:04:46.528Z,0.00
2019-06-25T08:05:46.460Z,0.00
2019-06-25T08:06:46.397Z,0.00
2019-06-25T08:07:46.326Z,0.00
2019-06-25T08:08:46.259Z,0.00
2019-06-25T08:09:46.192Z,0.00
2019-06-25T08:10:46.126Z,0.00
2019-06-25T08:11:46.064Z,0.00
2019-06-25T08:12:46.037Z,0.00
2019-06-25T08:13:45.923Z,0.00
2019-06-25T08:14:45.895Z,0.00
2019-06-25T08:15:45.789Z,0.00
2019-06-25T08:16:45.724Z,0.00
2019-06-25T08:17:45.650Z,0.00
2019-06-25T08:18:45.583Z,0.00
2019-06-25T08:19:45.519Z,0.00
2019-06-25T08:20:45.451Z,0.00
2019-06-25T08:21:45.381Z,0.00
2019-06-25T08:22:45.316Z,0.00
2019-06-25T08:23:45.252Z,0.00
2019-06-25T08:24:45.185Z,0.00
2019-06-25T08:25:45.118Z,0.00
2019-06-25T08:26:45.048Z,0.00
2019-06-25T08:27:44.980Z,0.00
2019-06-25T08:28:44.914Z,0.00
2019-06-25T08:29:44.846Z,0.00
2019-06-25T08:30:44.780Z,0.00
2019-06-25T08:31:44.721Z,0.00
2019-06-25T08:32:44.651Z,0.00
2019-06-25T08:33:44.582Z,0.00
2019-06-25T08:34:44.511Z,0.00
2019-06-25T08:35:44.443Z,0.00
2019-06-25T08:36:44.378Z,0.00
2019-06-25T08:37:44.309Z,0.00
2019-06-25T08:38:44.246Z,0.00
2019-06-25T08:39:44.177Z,0.00
2019-06-25T08:40:44.251Z,0.00
2019-06-25T08:41:44.042Z,0.00
2019-06-25T08:42:43.975Z,0.00
2019-06-25T08:43:43.937Z,0.00
2019-06-25T08:44:43.845Z,0.00
2019-06-25T08:45:43.818Z,0.00
2019-06-25T08:46:43.729Z,0.00
2019-06-25T08:47:43.642Z,0.00
2019-06-25T08:48:43.575Z,0.00
2019-06-25T08:49:43.510Z,0.00
2019-06-25T08:50:43.444Z,0.00
2019-06-25T08:51:43.375Z,0.00
2019-06-25T08:52:57.015Z,0.00
2019-06-25T08:53:43.244Z,0.00
2019-06-25T08:54:43.174Z,0.00
2019-06-25T08:55:43.109Z,0.00
2019-06-25T08:56:43.066Z,0.00
2019-06-25T08:57:42.977Z,0.00
2019-06-25T08:58:42.918Z,0.00
2019-06-25T08:59:42.842Z,0.00
2019-06-25T09:00:42.776Z,0.00
2019-06-25T09:01:42.710Z,0.00
2019-06-25T09:02:42.643Z,0.00
2019-06-25T09:03:42.577Z,0.00
2019-06-25T09:04:56.966Z,0.00
2019-06-25T09:05:42.445Z,0.00
2019-06-25T09:06:42.378Z,0.00
2019-06-25T09:07:42.319Z,0.00
2019-06-25T09:08:42.242Z,0.00
2019-06-25T09:09:42.178Z,0.00
2019-06-25T09:10:42.118Z,0.00
2019-06-25T09:11:42.059Z,0.00
2019-06-25T09:12:41.990Z,0.00
2019-06-25T09:13:41.947Z,0.00
2019-06-25T09:14:41.848Z,0.00
2019-06-25T09:15:41.779Z,0.00
2019-06-25T09:16:41.714Z,0.00
2019-06-25T09:17:41.663Z,0.00
2019-06-25T09:18:41.582Z,0.00
2019-06-25T09:19:50.235Z,0.00
2019-06-25T09:20:44.070Z,0.00
2019-06-25T09:21:41.383Z,0.00
2019-06-25T09:22:41.317Z,0.00
2019-06-25T09:23:41.289Z,0.00
2019-06-25T09:24:41.187Z,0.00
2019-06-25T09:25:41.116Z,0.00
2019-06-25T09:26:41.050Z,0.00
2019-06-25T09:27:40.986Z,0.00
2019-06-25T09:28:40.931Z,0.00
2019-06-25T09:29:40.851Z,0.00
2019-06-25T09:30:40.786Z,0.00
2019-06-25T09:31:40.761Z,0.00
2019-06-25T09:32:40.657Z,0.00
2019-06-25T09:33:40.587Z,0.00
2019-06-25T09:34:40.522Z,0.00
2019-06-25T09:35:40.457Z,0.00
2019-06-25T09:36:40.393Z,0.00
2019-06-25T09:37:40.324Z,0.00
2019-06-25T09:38:40.258Z,0.00
2019-06-25T09:39:40.206Z,0.00
2019-06-25T09:40:40.126Z,0.00
2019-06-25T09:41:40.060Z,0.00
2019-06-25T09:42:39.995Z,0.00
2019-06-25T09:43:39.928Z,0.00
2019-06-25T09:44:39.962Z,0.00
2019-06-25T09:45:39.799Z,0.00
2019-06-25T09:46:39.740Z,0.00
2019-06-25T09:56:04.924Z,0.00
2019-06-25T09:57:04.840Z,0.00
2019-06-25T09:58:04.768Z,0.00
2019-06-25T09:59:04.701Z,0.00
2019-06-25T10:00:04.651Z,0.00
2019-06-25T10:01:04.568Z,0.00
2019-06-25T10:02:05.441Z,0.00
2019-06-25T10:03:04.440Z,0.00
2019-06-25T10:04:04.372Z,0.00
2019-06-25T10:05:04.304Z,0.00
2019-06-25T10:06:04.240Z,0.00
2019-06-25T10:07:04.529Z,0.00
2019-06-25T10:08:04.107Z,0.00
2019-06-25T10:09:04.080Z,0.00
2019-06-25T10:10:03.987Z,0.00
2019-06-25T10:11:03.908Z,0.00
2019-06-25T10:12:03.842Z,0.00
2019-06-25T10:13:03.827Z,0.00
2019-06-25T10:14:03.713Z,0.00
2019-06-25T10:15:03.645Z,0.00
2019-06-25T10:16:03.582Z,0.00
2019-06-25T10:17:03.525Z,0.00
2019-06-25T10:18:03.603Z,0.00
2019-06-25T10:19:05.022Z,0.00
2019-06-25T10:20:03.334Z,0.00
2019-06-25T10:21:03.254Z,0.00
2019-06-25T10:22:03.188Z,0.00
2019-06-25T10:23:03.120Z,0.00
2019-06-25T10:24:03.054Z,0.00
2019-06-25T10:25:02.989Z,0.00
2019-06-25T10:26:02.925Z,0.00
2019-06-25T10:27:02.874Z,0.00
2019-06-25T10:28:02.792Z,0.00
2019-06-25T10:29:02.738Z,0.00
2019-06-25T10:30:02.995Z,0.00
2019-06-25T10:31:02.715Z,0.00
2019-06-25T10:32:02.594Z,0.00
2019-06-25T10:33:02.467Z,0.00
2019-06-25T10:34:02.533Z,0.00
2019-06-25T10:35:03.089Z,0.00
2019-06-25T10:36:02.280Z,0.00
2019-06-25T10:37:02.271Z,0.00
2019-06-25T10:39:14.664Z,0.00
2019-06-25T10:40:14.596Z,0.00
2019-06-25T10:41:14.533Z,0.00
2019-06-25T10:42:14.462Z,0.00
2019-06-25T10:43:14.398Z,0.00
2019-06-25T10:44:14.334Z,0.00
2019-06-25T10:45:14.469Z,0.00
2019-06-25T10:46:14.202Z,0.00
2019-06-25T10:47:14.138Z,0.00
2019-06-25T10:48:14.074Z,0.00
2019-06-25T10:49:14.009Z,0.00
2019-06-25T10:50:13.946Z,0.00
2019-06-25T10:51:13.927Z,0.00
2019-06-25T10:52:13.818Z,0.00
2019-06-25T10:53:13.752Z,0.00
2019-06-25T10:54:13.686Z,0.00
2019-06-25T10:55:13.622Z,0.00
2019-06-25T10:56:13.560Z,0.00
2019-06-25T10:57:13.499Z,0.00
2019-06-25T10:58:13.429Z,0.00
2019-06-25T10:59:13.370Z,0.00
2019-06-25T11:00:13.302Z,0.00
2019-06-25T11:01:13.241Z,0.00
2019-06-25T11:02:13.174Z,0.00
2019-06-25T11:03:13.129Z,0.00
2019-06-25T11:04:13.049Z,0.00
2019-06-25T11:05:12.984Z,0.00
2019-06-25T11:06:12.937Z,0.00
2019-06-25T11:07:12.855Z,0.00
2019-06-25T11:08:12.794Z,0.00
2019-06-25T11:09:12.727Z,0.00
2019-06-25T11:10:12.795Z,0.00
2019-06-25T11:11:12.664Z,0.00
2019-06-25T11:12:14.122Z,0.00
2019-06-25T11:13:12.472Z,0.00
2019-06-25T11:14:12.454Z,0.00
2019-06-25T11:25:18.237Z,0.00
2019-06-25T11:27:08.294Z,0.00
2019-06-25T11:28:05.611Z,0.00
2019-06-25T11:31:07.999Z,0.00
2019-06-25T11:32:07.939Z,0.00
2019-06-25T11:33:07.875Z,0.00
2019-06-25T11:34:07.817Z,0.00
2019-06-25T11:35:07.753Z,0.00
2019-06-25T11:36:20.982Z,0.00
2019-06-25T11:37:07.631Z,0.00
2019-06-25T11:38:07.574Z,0.00
2019-06-25T11:39:07.522Z,0.10
2019-06-25T11:40:07.451Z,0.00
2019-06-25T11:41:07.394Z,0.10
2019-06-25T11:42:07.333Z,0.10
2019-06-25T11:43:07.279Z,0.10
2019-06-25T11:44:07.216Z,0.10
2019-06-25T11:45:07.159Z,0.10
2019-06-25T11:46:07.099Z,0.10
2019-06-25T11:47:07.039Z,0.10
2019-06-25T11:48:06.987Z,0.10
2019-06-25T11:49:06.923Z,0.10
2019-06-25T11:50:06.950Z,0.10
2019-06-25T11:51:06.806Z,0.10
2019-06-25T11:52:06.750Z,0.10
2019-06-25T11:53:06.693Z,0.10
2019-06-25T11:54:06.637Z,0.10
2019-06-25T11:55:06.579Z,0.10
2019-06-25T11:56:07.384Z,0.10
2019-06-25T11:57:06.465Z,0.10
2019-06-25T11:58:06.410Z,0.10
2019-06-25T11:59:06.354Z,0.10
2019-06-25T12:00:06.317Z,0.10
2019-06-25T12:01:06.239Z,0.10
2019-06-25T12:02:06.185Z,0.20
2019-06-25T12:03:06.129Z,0.20
2019-06-25T12:04:06.073Z,0.20
2019-06-25T12:05:06.048Z,0.20
2019-06-25T12:06:05.962Z,0.20
2019-06-25T12:07:05.907Z,0.20
2019-06-25T12:08:05.855Z,0.20
2019-06-25T12:09:05.798Z,0.30
2019-06-25T12:10:05.742Z,0.30
2019-06-25T12:11:05.692Z,0.30
2019-06-25T12:12:05.646Z,0.30
2019-06-25T12:13:05.580Z,0.30
2019-06-25T12:14:05.525Z,0.40
2019-06-25T12:15:05.470Z,0.40
2019-06-25T12:16:05.428Z,0.50
2019-06-25T12:17:05.369Z,0.50
2019-06-25T12:18:05.311Z,0.50
2019-06-25T12:19:05.264Z,0.50
2019-06-25T12:20:05.223Z,0.50
2019-06-25T12:21:05.151Z,0.50
2019-06-25T12:22:05.104Z,0.50
2019-06-25T12:23:05.046Z,0.50
2019-06-25T12:24:04.993Z,0.60
2019-06-25T12:25:04.940Z,0.60
2019-06-25T12:26:04.900Z,0.60
2019-06-25T12:27:04.834Z,0.70
2019-06-25T12:28:04.781Z,0.60
2019-06-25T12:29:04.733Z,0.70
2019-06-25T12:30:04.719Z,0.70
2019-06-25T12:31:04.624Z,0.70
2019-06-25T12:32:04.571Z,0.70
2019-06-25T12:33:04.519Z,0.80
2019-06-25T12:34:04.467Z,0.70
2019-06-25T12:35:04.417Z,0.80
2019-06-25T12:36:04.363Z,0.90
2019-06-25T12:37:09.776Z,0.80
2019-06-25T12:38:04.261Z,0.90
2019-06-25T12:39:04.215Z,0.90
2019-06-25T12:40:04.160Z,0.90
2019-06-25T12:41:04.108Z,0.90
2019-06-25T12:42:04.055Z,0.90
2019-06-25T12:43:04.003Z,1.00
2019-06-25T12:44:03.950Z,1.00
2019-06-25T12:45:03.900Z,1.00
2019-06-25T12:46:03.852Z,1.00
2019-06-25T12:47:03.794Z,1.00
2019-06-25T12:48:03.741Z,1.00
2019-06-25T12:49:03.690Z,1.00
2019-06-25T12:50:03.641Z,1.00
2019-06-25T12:51:03.585Z,1.00
2019-06-25T12:52:03.550Z,1.00
2019-06-25T12:53:03.483Z,1.00
2019-06-25T12:54:03.541Z,1.00
2019-06-25T12:55:03.374Z,0.90
2019-06-25T12:56:03.321Z,0.90
2019-06-25T12:57:03.269Z,0.90
2019-06-25T12:58:03.217Z,0.90
2019-06-25T12:59:03.162Z,0.90
2019-06-25T13:00:03.108Z,0.90
2019-06-25T13:01:03.056Z,0.90
2019-06-25T13:02:03.002Z,0.90
2019-06-25T13:03:02.956Z,0.90
2019-06-25T13:04:02.894Z,1.00
2019-06-25T13:05:02.841Z,1.00
2019-06-25T13:06:02.790Z,1.00
2019-06-25T13:07:02.742Z,1.00
2019-06-25T13:08:02.681Z,1.10
2019-06-25T13:09:02.630Z,1.00
2019-06-25T13:10:02.582Z,1.10
2019-06-25T13:11:02.527Z,1.10
2019-06-25T13:12:02.474Z,1.10
2019-06-25T13:13:02.420Z,1.10
2019-06-25T13:14:02.364Z,1.10
2019-06-25T13:15:02.422Z,1.00
2019-06-25T13:16:02.256Z,1.00
2019-06-25T13:17:02.203Z,0.90
2019-06-25T13:18:02.154Z,0.90
2019-06-25T13:19:02.096Z,0.80
2019-06-25T13:20:02.042Z,0.80
2019-06-25T13:21:02.007Z,0.80
2019-06-25T13:22:01.938Z,0.80
2019-06-25T13:23:01.880Z,0.90
2019-06-25T13:24:01.827Z,0.80
2019-06-25T13:25:01.791Z,0.80
2019-06-25T13:26:01.739Z,0.90
2019-06-25T13:27:01.665Z,0.90
2019-06-25T13:28:01.610Z,0.90
2019-06-25T13:29:01.556Z,0.90
2019-06-25T13:30:02.506Z,0.90
2019-06-25T13:31:01.496Z,0.90
2019-06-25T13:32:01.394Z,0.90
2019-06-25T13:33:01.363Z,1.00
2019-06-25T13:34:01.287Z,1.00
2019-06-25T13:35:01.233Z,1.00
2019-06-25T13:36:01.825Z,1.00
2019-06-25T13:37:01.126Z,1.00
2019-06-25T13:38:01.073Z,1.20
2019-06-25T13:39:01.020Z,1.20
2019-06-25T13:40:00.966Z,1.20
2019-06-25T13:41:00.919Z,1.30
2019-06-25T13:42:05.142Z,1.40
2019-06-25T13:43:00.805Z,1.40
2019-06-25T13:44:00.752Z,1.60
2019-06-25T13:45:00.742Z,1.60
2019-06-25T13:46:00.653Z,1.70